Time;durP1;ratioP1;P1;durP2;ratioP2;P2;SDS_P1;SDS_P2;PMS_P1;PMS_P2;Temp;Humidity;BMP_temperature;BMP_pressure;BME280_temperature;BME280_humidity;BME280_pressure;Samples;Min_cycle;Max_cycle;Signal;HPM_P1;HPM_P2
2021/05/21 00:00:22;;;;;;;2.55;1.25;;;12.40;87.90;;;;;;5093181;28;20430;-70
2021/05/21 00:02:48;;;;;;;3.00;1.25;;;12.40;87.20;;;;;;5093563;28;20039;-70
2021/05/21 00:05:14;;;;;;;3.55;1.38;;;12.50;87.70;;;;;;5093581;28;20491;-70
2021/05/21 00:07:40;;;;;;;3.30;1.17;;;12.50;87.50;;;;;;5093750;28;20040;-70
2021/05/21 00:10:06;;;;;;;3.20;1.17;;;12.50;87.50;;;;;;5092943;28;20047;-70
2021/05/21 00:12:32;;;;;;;3.58;1.30;;;12.50;87.50;;;;;;5093280;28;20038;-70
2021/05/21 00:14:58;;;;;;;4.47;1.55;;;12.50;87.80;;;;;;5093941;28;20032;-70
2021/05/21 00:17:24;;;;;;;2.25;1.17;;;12.60;87.90;;;;;;5093895;28;20093;-70
2021/05/21 00:19:50;;;;;;;3.60;1.30;;;12.60;87.70;;;;;;5093454;28;20040;-70
2021/05/21 00:22:16;;;;;;;3.63;1.50;;;12.60;87.70;;;;;;5093607;28;20464;-70
2021/05/21 00:24:41;;;;;;;2.85;1.35;;;12.60;87.60;;;;;;5093929;28;20047;-70
2021/05/21 00:27:07;;;;;;;2.75;1.38;;;12.60;87.70;;;;;;5093028;28;20471;-70
2021/05/21 00:29:33;;;;;;;2.80;1.17;;;12.60;87.60;;;;;;5092934;28;20450;-70
2021/05/21 00:31:59;;;;;;;2.72;1.10;;;12.70;87.60;;;;;;5093225;28;20376;-70
2021/05/21 00:34:26;;;;;;;2.92;1.33;;;12.60;87.50;;;;;;5093590;28;20032;-70
2021/05/21 00:36:52;;;;;;;1.98;1.17;;;12.60;87.50;;;;;;5093271;28;20050;-70
2021/05/21 00:39:19;;;;;;;3.03;1.20;;;12.70;87.10;;;;;;5092647;28;20067;-70
2021/05/21 00:41:45;;;;;;;1.50;1.00;;;12.70;87.20;;;;;;5093798;28;20035;-70
2021/05/21 00:44:12;;;;;;;4.03;1.20;;;12.70;87.40;;;;;;5093034;28;20043;-70
2021/05/21 00:46:37;;;;;;;2.00;1.10;;;12.60;87.40;;;;;;5093173;28;20051;-70
2021/05/21 00:49:03;;;;;;;1.85;1.13;;;12.60;87.50;;;;;;5092830;28;20036;-70
2021/05/21 00:51:29;;;;;;;2.38;0.95;;;12.60;88.10;;;;;;5093479;28;20116;-70
2021/05/21 00:53:56;;;;;;;1.73;0.82;;;12.60;88.00;;;;;;5093170;28;20047;-70
2021/05/21 00:56:22;;;;;;;4.78;1.30;;;12.60;87.80;;;;;;5092936;28;20539;-70
2021/05/21 00:58:48;;;;;;;3.47;1.10;;;12.70;87.80;;;;;;5091400;28;20036;-70
2021/05/21 01:01:14;;;;;;;2.67;1.00;;;12.60;88.00;;;;;;5093098;28;20044;-70
2021/05/21 01:03:40;;;;;;;3.45;1.30;;;12.60;88.10;;;;;;5093200;28;20529;-70
2021/05/21 01:06:06;;;;;;;1.85;1.40;;;12.60;88.10;;;;;;5093202;28;20082;-70
2021/05/21 01:08:34;;;;;;;2.20;1.10;;;12.70;88.10;;;;;;5093105;28;20035;-70
2021/05/21 01:11:01;;;;;;;3.55;0.98;;;12.70;88.10;;;;;;5093386;28;20036;-70
2021/05/21 01:13:27;;;;;;;3.97;1.60;;;12.70;88.10;;;;;;5093639;28;20372;-70
2021/05/21 01:15:52;;;;;;;2.05;0.95;;;12.70;88.30;;;;;;5096926;28;20097;-70
2021/05/21 01:18:18;;;;;;;2.05;1.08;;;12.60;88.80;;;;;;5096289;28;20040;-70
2021/05/21 01:20:44;;;;;;;2.83;1.30;;;12.70;88.80;;;;;;5095899;28;20039;-70
2021/05/21 01:23:10;;;;;;;3.05;1.17;;;12.60;89.20;;;;;;5096401;28;20492;-70
2021/05/21 01:25:36;;;;;;;2.78;1.13;;;12.60;89.50;;;;;;5096770;28;20040;-70
2021/05/21 01:28:04;;;;;;;2.08;1.88;;;12.60;90.00;;;;;;5096219;28;20040;-70
2021/05/21 01:30:30;;;;;;;4.22;1.10;;;12.60;90.10;;;;;;5096045;28;20040;-70
2021/05/21 01:33:08;;;;;;;3.42;1.20;;;12.60;90.20;;;;;;5096026;28;20032;-70
2021/05/21 01:35:33;;;;;;;5.03;1.00;;;12.60;90.30;;;;;;5096012;28;20044;-70
2021/05/21 01:37:59;;;;;;;3.90;1.10;;;12.60;90.40;;;;;;5096154;28;20486;-70
2021/05/21 01:40:25;;;;;;;4.22;1.10;;;12.60;90.30;;;;;;5095902;28;20040;-70
2021/05/21 01:42:51;;;;;;;3.15;0.90;;;12.60;90.30;;;;;;5096200;28;20065;-70
2021/05/21 01:45:17;;;;;;;3.30;1.08;;;12.60;90.40;;;;;;5095827;28;20036;-70
2021/05/21 01:47:47;;;;;;;2.58;1.48;;;12.60;90.60;;;;;;5095047;28;20110;-70
2021/05/21 01:50:13;;;;;;;4.60;1.10;;;12.60;90.90;;;;;;5094152;28;20036;-70
2021/05/21 01:52:39;;;;;;;3.80;1.30;;;12.60;91.10;;;;;;5095658;28;20111;-70
2021/05/21 01:55:05;;;;;;;4.72;1.42;;;12.60;91.20;;;;;;5095650;28;20040;-70
2021/05/21 01:57:32;;;;;;;2.65;1.13;;;12.50;91.80;;;;;;5095601;28;20036;-70
2021/05/21 01:59:57;;;;;;;2.20;1.50;;;12.50;91.60;;;;;;5095517;28;20039;-70
2021/05/21 02:02:23;;;;;;;1.67;1.08;;;12.50;92.10;;;;;;5096115;28;20222;-70
2021/05/21 02:04:49;;;;;;;5.53;1.30;;;12.40;92.30;;;;;;5096085;28;20071;-71
2021/05/21 02:07:16;;;;;;;3.53;1.45;;;12.40;93.10;;;;;;5095383;28;20090;-70
2021/05/21 02:09:59;;;;;;;4.97;1.88;;;12.40;93.60;;;;;;5094968;28;20439;-71
2021/05/21 02:12:28;;;;;;;3.55;2.00;;;12.30;94.30;;;;;;5094881;28;20036;-70
2021/05/21 02:14:54;;;;;;;3.70;1.90;;;12.20;95.10;;;;;;5095335;28;20050;-70
2021/05/21 02:17:20;;;;;;;4.68;1.92;;;12.10;95.40;;;;;;5095285;28;20127;-71
2021/05/21 02:19:45;;;;;;;7.35;2.15;;;11.90;95.90;;;;;;5095109;28;20060;-71
2021/05/21 02:22:12;;;;;;;7.65;2.30;;;11.80;96.80;;;;;;5095183;28;20495;-71
2021/05/21 02:24:39;;;;;;;9.10;2.25;;;11.80;96.70;;;;;;5094569;28;20063;-71
2021/05/21 02:27:06;;;;;;;11.63;2.75;;;11.70;97.50;;;;;;5095016;28;20040;-71
2021/05/21 02:29:31;;;;;;;6.28;2.35;;;11.70;97.40;;;;;;5094621;28;20040;-71
2021/05/21 02:31:57;;;;;;;6.47;3.00;;;11.60;97.60;;;;;;5093739;28;20070;-71
2021/05/21 02:34:23;;;;;;;8.88;2.80;;;11.60;98.20;;;;;;5094872;28;20071;-71
2021/05/21 02:36:49;;;;;;;8.80;2.92;;;11.60;97.90;;;;;;5094903;28;20531;-71
2021/05/21 02:39:14;;;;;;;16.45;3.33;;;11.50;98.00;;;;;;5094560;28;20036;-71
2021/05/21 02:41:40;;;;;;;12.50;3.13;;;11.50;98.20;;;;;;5094894;28;20032;-71
2021/05/21 02:44:06;;;;;;;14.45;3.03;;;11.40;98.30;;;;;;5095217;28;20054;-71
2021/05/21 02:46:32;;;;;;;14.48;2.88;;;11.40;98.70;;;;;;5094746;28;20533;-71
2021/05/21 02:48:58;;;;;;;21.05;4.38;;;11.40;98.40;;;;;;5093629;28;20043;-71
2021/05/21 02:51:23;;;;;;;15.85;3.25;;;11.40;98.40;;;;;;5094729;28;20368;-71
2021/05/21 02:53:49;;;;;;;18.10;3.45;;;11.40;98.60;;;;;;5094615;28;20032;-71
2021/05/21 02:56:15;;;;;;;25.98;3.50;;;11.40;98.70;;;;;;5094624;28;20044;-71
2021/05/21 02:58:40;;;;;;;12.05;2.78;;;11.30;98.60;;;;;;5094242;28;20147;-71
2021/05/21 03:01:06;;;;;;;19.45;3.83;;;11.30;98.50;;;;;;5094385;28;20058;-71
2021/05/21 03:03:32;;;;;;;17.33;3.72;;;11.20;98.30;;;;;;5094280;28;20040;-71
2021/05/21 03:05:58;;;;;;;15.18;3.08;;;11.20;98.00;;;;;;5094390;28;20089;-71
2021/05/21 03:08:24;;;;;;;14.93;3.00;;;11.10;98.20;;;;;;5094702;28;20040;-71
2021/05/21 03:10:50;;;;;;;15.68;3.40;;;11.00;98.50;;;;;;5093920;28;20036;-71
2021/05/21 03:13:17;;;;;;;14.82;3.92;;;11.00;98.50;;;;;;5094804;28;20472;-71
2021/05/21 03:15:43;;;;;;;12.55;3.13;;;11.00;98.00;;;;;;5094117;28;20044;-71
2021/05/21 03:18:23;;;;;;;15.30;4.00;;;11.00;98.20;;;;;;5094748;28;20460;-71
2021/05/21 03:20:50;;;;;;;13.65;4.32;;;10.90;98.20;;;;;;5094048;28;20036;-71
2021/05/21 03:23:17;;;;;;;16.33;3.10;;;11.00;97.90;;;;;;5094318;28;20047;-71
2021/05/21 03:25:43;;;;;;;20.00;3.13;;;10.90;98.00;;;;;;5094356;28;20036;-71
2021/05/21 03:28:10;;;;;;;16.48;3.00;;;10.80;97.60;;;;;;5093867;28;20067;-71
2021/05/21 03:30:38;;;;;;;13.80;2.75;;;10.70;98.10;;;;;;5093558;28;20067;-71
2021/05/21 03:33:04;;;;;;;18.55;3.92;;;10.60;98.40;;;;;;5093759;28;20088;-71
2021/05/21 03:35:30;;;;;;;14.30;2.88;;;10.50;98.70;;;;;;5093816;28;20039;-71
2021/05/21 03:37:55;;;;;;;9.93;2.78;;;10.40;98.80;;;;;;5093510;28;20036;-71
2021/05/21 03:40:21;;;;;;;11.13;3.35;;;10.40;98.90;;;;;;5093554;28;20153;-71
2021/05/21 03:42:48;;;;;;;14.98;3.63;;;10.40;98.80;;;;;;5094357;28;20479;-71
2021/05/21 03:45:15;;;;;;;12.80;3.15;;;10.30;99.00;;;;;;5094296;28;20043;-71
2021/05/21 03:47:41;;;;;;;13.35;2.45;;;10.30;99.00;;;;;;5093599;28;20032;-71
2021/05/21 03:50:08;;;;;;;15.15;3.28;;;10.30;99.20;;;;;;5093547;28;20080;-71
2021/05/21 03:52:33;;;;;;;12.73;3.42;;;10.20;99.20;;;;;;5093931;28;20043;-71
2021/05/21 03:55:00;;;;;;;13.55;3.33;;;10.30;99.20;;;;;;5093517;28;20035;-71
2021/05/21 03:57:27;;;;;;;12.43;2.42;;;10.30;99.20;;;;;;5093604;28;20067;-71
2021/05/21 03:59:52;;;;;;;10.48;3.20;;;10.30;99.20;;;;;;5093478;28;20439;-71
2021/05/21 04:02:18;;;;;;;13.07;2.67;;;10.30;99.10;;;;;;5093889;28;20114;-71
2021/05/21 04:04:43;;;;;;;16.40;2.85;;;10.30;99.00;;;;;;5094040;28;20124;-71
2021/05/21 04:07:09;;;;;;;18.10;4.50;;;10.30;98.90;;;;;;5093754;28;20036;-71
2021/05/21 04:09:35;;;;;;;10.68;2.80;;;10.30;98.60;;;;;;5092983;28;20044;-71
2021/05/21 04:12:01;;;;;;;13.40;4.03;;;10.40;98.40;;;;;;5094084;28;20068;-71
2021/05/21 04:14:27;;;;;;;14.68;3.30;;;10.40;98.30;;;;;;5094007;28;20498;-71
2021/05/21 04:16:53;;;;;;;15.90;3.03;;;10.50;98.30;;;;;;5093391;28;20123;-71
2021/05/21 04:19:19;;;;;;;11.13;2.50;;;10.40;98.20;;;;;;5093223;28;20036;-71
2021/05/21 04:21:44;;;;;;;12.10;2.78;;;10.40;98.10;;;;;;5093934;28;20040;-71
2021/05/21 04:24:10;;;;;;;14.48;3.00;;;10.50;98.00;;;;;;5093357;28;20463;-71
2021/05/21 04:26:36;;;;;;;14.15;3.08;;;10.50;98.10;;;;;;5093240;28;20051;-71
2021/05/21 04:29:02;;;;;;;13.38;2.97;;;10.50;98.00;;;;;;5092965;28;20403;-71
2021/05/21 04:31:28;;;;;;;14.15;3.22;;;10.60;97.80;;;;;;5093093;28;20556;-71
2021/05/21 04:33:54;;;;;;;18.23;3.20;;;10.60;98.10;;;;;;5093475;28;20044;-71
2021/05/21 04:36:20;;;;;;;16.25;3.65;;;10.60;98.10;;;;;;5093235;28;20483;-70
2021/05/21 04:38:46;;;;;;;18.55;3.70;;;10.60;97.90;;;;;;5092897;28;20036;-71
2021/05/21 04:41:11;;;;;;;14.35;3.45;;;10.60;98.10;;;;;;5093025;28;20043;-71
2021/05/21 04:43:37;;;;;;;16.05;3.40;;;10.70;98.00;;;;;;5092979;28;20511;-71
2021/05/21 04:46:04;;;;;;;16.13;3.75;;;10.60;98.20;;;;;;5093127;28;20076;-71
2021/05/21 04:48:30;;;;;;;13.98;2.72;;;10.60;98.20;;;;;;5094260;28;20032;-72
2021/05/21 04:50:59;;;;;;;15.32;3.50;;;10.60;97.90;;;;;;5096758;28;20039;-71
2021/05/21 04:53:31;;;;;;;14.18;3.17;;;10.70;97.90;;;;;;5096394;28;20043;-71
2021/05/21 04:55:57;;;;;;;12.57;3.42;;;10.70;98.00;;;;;;5097473;28;20395;-71
2021/05/21 04:58:24;;;;;;;18.95;3.70;;;10.70;97.50;;;;;;5096788;28;20058;-71
2021/05/21 05:00:49;;;;;;;14.38;2.97;;;10.70;97.30;;;;;;5096567;28;20119;-71
2021/05/21 05:03:17;;;;;;;20.23;3.95;;;10.80;97.10;;;;;;5097011;28;20035;-71
2021/05/21 05:05:44;;;;;;;18.77;4.25;;;10.80;97.00;;;;;;5097207;28;20082;-71
2021/05/21 05:08:13;;;;;;;21.23;3.92;;;10.80;96.70;;;;;;5096594;28;20068;-71
2021/05/21 05:10:39;;;;;;;19.38;4.50;;;10.80;96.60;;;;;;5096135;28;20132;-71
2021/05/21 05:13:05;;;;;;;18.20;4.70;;;10.90;96.40;;;;;;5096428;28;20484;-71
2021/05/21 05:15:35;;;;;;;17.00;3.63;;;11.10;96.20;;;;;;5096503;28;20089;-71
2021/05/21 05:18:01;;;;;;;17.20;4.00;;;11.50;96.00;;;;;;5096422;28;20036;-71
2021/05/21 05:20:27;;;;;;;16.10;3.45;;;11.80;95.50;;;;;;5095045;28;20036;-71
2021/05/21 05:22:54;;;;;;;18.05;3.67;;;12.10;95.30;;;;;;5096440;28;20028;-71
2021/05/21 05:25:20;;;;;;;12.88;3.05;;;12.50;94.80;;;;;;5096343;28;20039;-71
2021/05/21 05:27:46;;;;;;;19.75;3.70;;;12.80;94.10;;;;;;5096253;28;20058;-71
2021/05/21 05:30:12;;;;;;;16.88;3.58;;;13.10;93.80;;;;;;5094888;28;20499;-71
2021/05/21 05:32:38;;;;;;;21.52;3.78;;;13.30;93.00;;;;;;5096032;28;20047;-71
2021/05/21 05:35:05;;;;;;;18.17;4.10;;;13.60;93.10;;;;;;5096610;28;20040;-69
2021/05/21 05:37:31;;;;;;;17.23;3.80;;;13.80;92.50;;;;;;5096594;28;20114;-73
2021/05/21 05:39:56;;;;;;;15.05;3.35;;;13.90;92.50;;;;;;5094657;28;20192;-73
2021/05/21 05:42:22;;;;;;;19.98;3.88;;;14.10;92.00;;;;;;5096515;28;20032;-73
2021/05/21 05:44:48;;;;;;;10.80;3.33;;;14.10;91.90;;;;;;5095886;28;20039;-73
2021/05/21 05:47:14;;;;;;;13.90;3.42;;;14.20;91.80;;;;;;5095808;28;20032;-73
2021/05/21 05:49:39;;;;;;;20.85;4.25;;;14.20;92.60;;;;;;5095420;28;20483;-73
2021/05/21 05:52:05;;;;;;;16.52;3.95;;;14.30;92.20;;;;;;5096323;28;20039;-73
2021/05/21 05:54:31;;;;;;;13.68;3.10;;;14.30;92.10;;;;;;5096350;28;20046;-73
2021/05/21 05:56:57;;;;;;;16.60;3.10;;;14.30;91.80;;;;;;5095972;28;20472;-73
2021/05/21 05:59:26;;;;;;;17.85;3.30;;;14.20;92.50;;;;;;5095008;28;20040;-73
2021/05/21 06:01:52;;;;;;;17.25;3.85;;;14.00;92.10;;;;;;5095475;28;20503;-73
2021/05/21 06:04:18;;;;;;;17.13;3.60;;;13.80;92.30;;;;;;5096174;28;20032;-73
2021/05/21 06:06:44;;;;;;;15.35;4.35;;;13.70;92.80;;;;;;5095533;28;20399;-73
2021/05/21 06:09:10;;;;;;;16.70;4.40;;;13.60;92.50;;;;;;5095176;28;20044;-73
2021/05/21 06:11:38;;;;;;;19.98;4.07;;;13.60;93.10;;;;;;5095378;28;20040;-73
2021/05/21 06:14:04;;;;;;;17.25;3.95;;;13.80;93.10;;;;;;5095308;28;20072;-73
2021/05/21 06:16:31;;;;;;;15.85;3.72;;;13.80;92.90;;;;;;5095391;28;20139;-73
2021/05/21 06:18:57;;;;;;;16.55;4.22;;;13.90;92.50;;;;;;5095395;28;20218;-73
2021/05/21 06:21:23;;;;;;;16.33;4.03;;;14.20;92.40;;;;;;5095270;28;20032;-73
2021/05/21 06:23:48;;;;;;;15.85;3.85;;;14.20;92.50;;;;;;5095170;28;20036;-73
2021/05/21 06:26:31;;;;;;;16.50;4.38;;;14.20;91.90;;;;;;5095043;28;20083;-73
2021/05/21 06:28:57;;;;;;;17.20;4.47;;;14.10;91.90;;;;;;5095204;28;20040;-73
2021/05/21 06:31:23;;;;;;;16.42;3.95;;;13.80;91.80;;;;;;5094644;28;20032;-73
2021/05/21 06:33:49;;;;;;;21.67;4.55;;;14.00;92.40;;;;;;5094944;28;20040;-73
2021/05/21 06:36:15;;;;;;;16.88;4.28;;;14.40;91.60;;;;;;5094811;28;20040;-73
2021/05/21 06:38:41;;;;;;;13.23;3.33;;;14.80;90.40;;;;;;5095084;28;20108;-73
2021/05/21 06:41:08;;;;;;;14.57;4.57;;;15.20;91.00;;;;;;5095278;28;20044;-73
2021/05/21 06:43:34;;;;;;;17.17;4.00;;;15.50;90.10;;;;;;5093928;28;20392;-73
2021/05/21 06:46:01;;;;;;;11.27;3.53;;;15.50;89.70;;;;;;5094581;28;20119;-73
2021/05/21 06:48:32;;;;;;;15.32;3.10;;;15.10;89.10;;;;;;5095274;28;20031;-74
2021/05/21 06:50:59;;;;;;;16.70;4.05;;;14.80;90.00;;;;;;5094688;28;20376;-73
2021/05/21 06:53:26;;;;;;;16.40;3.53;;;14.60;89.60;;;;;;5094529;28;20036;-73
2021/05/21 06:55:52;;;;;;;14.73;3.63;;;14.30;90.40;;;;;;5094909;28;20039;-73
2021/05/21 06:58:19;;;;;;;16.45;3.65;;;14.10;90.40;;;;;;5094580;28;20040;-73
2021/05/21 07:00:49;;;;;;;12.68;3.67;;;14.00;90.80;;;;;;5094075;28;20074;-73
2021/05/21 07:03:16;;;;;;;20.02;4.80;;;13.90;91.60;;;;;;5094407;28;20122;-73
2021/05/21 07:05:43;;;;;;;17.17;3.28;;;13.70;91.60;;;;;;5094303;28;20055;-73
2021/05/21 07:08:10;;;;;;;18.40;4.03;;;13.60;92.00;;;;;;5094187;28;20119;-73
2021/05/21 07:10:35;;;;;;;17.88;3.30;;;13.50;92.10;;;;;;5093741;28;20036;-73
2021/05/21 07:13:09;;;;;;;13.75;3.60;;;13.50;92.00;;;;;;5094440;28;20060;-73
2021/05/21 07:15:35;;;;;;;22.90;4.22;;;13.40;92.20;;;;;;5094778;28;20068;-73
2021/05/21 07:18:01;;;;;;;15.73;3.55;;;13.30;92.50;;;;;;5094095;28;20036;-73
2021/05/21 07:20:27;;;;;;;18.35;4.35;;;13.30;92.40;;;;;;5093728;28;20047;-73
2021/05/21 07:22:52;;;;;;;15.25;3.70;;;13.30;92.70;;;;;;5093863;28;20484;-73
2021/05/21 07:25:18;;;;;;;18.73;4.45;;;13.30;92.70;;;;;;5094441;28;20119;-73
2021/05/21 07:27:44;;;;;;;15.95;3.53;;;13.30;91.70;;;;;;5094487;28;20075;-73
2021/05/21 07:30:10;;;;;;;11.73;3.22;;;13.30;91.90;;;;;;5093677;28;20500;-73
2021/05/21 07:32:36;;;;;;;20.95;4.47;;;13.20;92.20;;;;;;5093789;28;20060;-73
2021/05/21 07:35:02;;;;;;;17.13;4.30;;;13.20;91.80;;;;;;5094163;28;20071;-73
2021/05/21 07:37:28;;;;;;;14.57;3.58;;;13.20;91.80;;;;;;5094058;28;20148;-73
2021/05/21 07:39:54;;;;;;;17.60;3.40;;;13.40;92.10;;;;;;5092376;28;20551;-73
2021/05/21 07:42:20;;;;;;;22.45;5.68;;;13.70;91.50;;;;;;5094396;28;20088;-73
2021/05/21 07:44:45;;;;;;;19.13;3.60;;;14.00;91.50;;;;;;5093907;28;20032;-73
2021/05/21 07:47:11;;;;;;;16.52;3.50;;;14.10;91.10;;;;;;5093600;28;20533;-73
2021/05/21 07:49:37;;;;;;;20.80;3.78;;;14.40;90.90;;;;;;5093380;28;20036;-73
2021/05/21 07:52:03;;;;;;;15.27;4.45;;;14.30;91.20;;;;;;5093619;28;20449;-73
2021/05/21 07:54:28;;;;;;;11.55;3.03;;;14.20;91.00;;;;;;5094056;28;20070;-73
2021/05/21 07:56:54;;;;;;;13.95;2.90;;;14.40;90.70;;;;;;5094186;28;20044;-73
2021/05/21 07:59:20;;;;;;;25.83;4.75;;;14.60;89.90;;;;;;5093219;28;20493;-73
2021/05/21 08:01:45;;;;;;;12.63;3.30;;;14.50;90.10;;;;;;5094051;28;20036;-73
2021/05/21 08:04:11;;;;;;;12.63;2.95;;;14.20;90.10;;;;;;5093772;28;20050;-73
2021/05/21 08:06:40;;;;;;;15.05;2.83;;;14.00;91.10;;;;;;5093377;28;20054;-73
2021/05/21 08:09:06;;;;;;;12.90;2.72;;;14.00;91.00;;;;;;5093163;28;20042;-73
2021/05/21 08:11:32;;;;;;;11.30;3.53;;;13.80;90.30;;;;;;5093943;28;20055;-73
2021/05/21 08:13:58;;;;;;;17.65;2.83;;;13.70;90.70;;;;;;5093262;28;20094;-73
2021/05/21 08:16:24;;;;;;;16.02;4.18;;;13.60;90.30;;;;;;5093705;28;20040;-73
2021/05/21 08:18:50;;;;;;;14.25;3.47;;;13.50;91.50;;;;;;5093464;28;20042;-73
2021/05/21 08:21:16;;;;;;;12.38;3.45;;;13.40;91.90;;;;;;5093349;28;20044;-73
2021/05/21 08:23:42;;;;;;;16.55;3.33;;;13.30;91.90;;;;;;5096524;28;20501;-73
2021/05/21 08:26:08;;;;;;;13.23;2.85;;;13.20;92.10;;;;;;5097947;28;20044;-73
2021/05/21 08:28:36;;;;;;;13.07;3.50;;;13.10;92.40;;;;;;5097723;28;20071;-73
2021/05/21 08:31:04;;;;;;;13.05;3.03;;;12.90;93.60;;;;;;5097249;28;20036;-73
2021/05/21 08:33:29;;;;;;;12.27;3.45;;;12.90;93.80;;;;;;5097364;28;20043;-73
2021/05/21 08:35:55;;;;;;;17.23;3.88;;;13.00;93.80;;;;;;5097301;28;20040;-73
2021/05/21 08:38:21;;;;;;;20.95;4.25;;;12.90;93.40;;;;;;5097844;28;20040;-73
2021/05/21 08:40:48;;;;;;;17.13;4.90;;;12.90;92.70;;;;;;5096804;28;20028;-73
2021/05/21 08:43:14;;;;;;;12.73;4.15;;;13.00;92.60;;;;;;5096567;28;20529;-73
2021/05/21 08:45:40;;;;;;;21.52;3.47;;;13.10;92.90;;;;;;5097222;28;20080;-73
2021/05/21 08:48:18;;;;;;;26.38;3.95;;;13.20;92.60;;;;;;5097035;28;20115;-73
2021/05/21 08:50:44;;;;;;;16.60;3.08;;;13.30;91.60;;;;;;5095338;28;20506;-73
2021/05/21 08:53:11;;;;;;;12.55;3.45;;;13.30;91.20;;;;;;5097584;28;20032;-73
2021/05/21 08:55:37;;;;;;;14.88;3.28;;;13.30;91.40;;;;;;5097557;28;20364;-73
2021/05/21 08:58:07;;;;;;;12.50;3.63;;;13.40;90.30;;;;;;5096748;28;20036;-73
2021/05/21 09:00:33;;;;;;;13.18;3.67;;;13.40;88.50;;;;;;5096803;28;20036;-73
2021/05/21 09:03:18;;;;;;;12.57;2.80;;;13.50;89.50;;;;;;5096694;28;20110;-73
2021/05/21 09:06:07;;;;;;;15.15;2.63;;;13.50;89.90;;;;;;5097370;28;20058;-73
2021/05/21 09:08:43;;;;;;;16.55;3.65;;;13.60;90.20;;;;;;5096343;28;20515;-73
2021/05/21 09:11:35;;;;;;;14.43;2.95;;;13.60;90.30;;;;;;5096865;28;20041;-73
2021/05/21 09:14:23;;;;;;;10.63;2.95;;;13.60;90.30;;;;;;5096558;28;20044;-73
2021/05/21 09:16:49;;;;;;;10.90;2.90;;;13.70;88.90;;;;;;5096981;28;20050;-73
2021/05/21 09:19:17;;;;;;;12.70;2.88;;;13.90;89.20;;;;;;5096123;28;20040;-73
2021/05/21 09:21:56;;;;;;;20.52;4.75;;;14.00;89.00;;;;;;5096802;28;20440;-73
2021/05/21 09:24:45;;;;;;;16.63;3.83;;;14.00;86.70;;;;;;5096625;28;20392;-73
2021/05/21 09:27:12;;;;;;;15.70;3.10;;;13.90;84.80;;;;;;5096845;28;20039;-73
2021/05/21 09:29:51;;;;;;;16.83;3.13;;;14.00;87.20;;;;;;5096166;28;20111;-72
2021/05/21 09:32:34;;;;;;;12.70;3.00;;;14.00;85.20;;;;;;5096269;28;20059;-73
2021/05/21 09:35:16;;;;;;;14.52;3.63;;;14.00;85.80;;;;;;5095480;28;20150;-72
2021/05/21 09:37:43;;;;;;;14.07;3.80;;;13.90;85.80;;;;;;5096712;28;20046;-73
2021/05/21 09:40:12;;;;;;;14.77;3.47;;;13.90;86.10;;;;;;5095650;28;20478;-73
2021/05/21 09:42:49;;;;;;;14.93;3.08;;;13.90;87.40;;;;;;5096397;28;20036;-73
2021/05/21 09:45:19;;;;;;;19.38;3.28;;;13.90;86.90;;;;;;5095982;28;20411;-73
2021/05/21 09:47:53;;;;;;;14.68;3.28;;;13.90;89.70;;;;;;5095844;28;20043;-73
2021/05/21 09:50:28;;;;;;;11.10;2.90;;;13.90;88.00;;;;;;5095786;28;20042;-73
2021/05/21 09:53:04;;;;;;;9.88;2.70;;;13.90;86.00;;;;;;5096178;28;20425;-73
2021/05/21 09:55:42;;;;;;;15.85;3.03;;;13.90;85.80;;;;;;5095900;28;20115;-72
2021/05/21 09:58:21;;;;;;;10.50;2.40;;;14.00;85.90;;;;;;5095625;28;20484;-73
2021/05/21 10:01:11;;;;;;;16.55;3.08;;;14.10;84.90;;;;;;5095343;28;20077;-73
2021/05/21 10:03:43;;;;;;;15.73;3.33;;;14.10;87.00;;;;;;5095514;28;20040;-73
2021/05/21 10:06:09;;;;;;;10.60;2.45;;;14.20;86.30;;;;;;5096219;28;20060;-73
2021/05/21 10:08:38;;;;;;;9.32;3.53;;;14.40;86.70;;;;;;5095768;28;20050;-74
2021/05/21 10:11:05;;;;;;;8.90;2.47;;;14.60;85.50;;;;;;5095245;28;20040;-73
2021/05/21 10:13:32;;;;;;;11.70;3.08;;;14.80;85.10;;;;;;5095461;28;20032;-73
2021/05/21 10:15:58;;;;;;;15.27;2.88;;;14.80;82.70;;;;;;5095351;28;20505;-73
2021/05/21 10:18:26;;;;;;;10.35;2.83;;;14.90;83.30;;;;;;5095883;28;20565;-74
2021/05/21 10:20:55;;;;;;;8.45;2.42;;;14.80;84.40;;;;;;5094973;28;20043;-73
2021/05/21 10:23:27;;;;;;;9.30;2.40;;;14.30;83.70;;;;;;5095569;28;20032;-73
2021/05/21 10:25:56;;;;;;;9.43;2.20;;;13.90;89.00;;;;;;5095634;28;20464;-73
2021/05/21 10:28:28;;;;;;;10.23;2.40;;;13.80;90.80;;;;;;5094471;28;20447;-74
2021/05/21 10:30:59;;;;;;;8.20;2.92;;;14.00;91.80;;;;;;5095401;28;20056;-73
2021/05/21 10:33:36;;;;;;;12.30;2.72;;;14.40;91.50;;;;;;5094585;28;20060;-73
2021/05/21 10:36:22;;;;;;;9.13;2.22;;;14.70;90.00;;;;;;5094926;28;20039;-72
2021/05/21 10:39:00;;;;;;;9.63;2.97;;;15.00;89.90;;;;;;5094640;28;20056;-73
2021/05/21 10:41:26;;;;;;;6.32;2.40;;;15.30;88.10;;;;;;5094632;28;20031;-73
2021/05/21 10:43:54;;;;;;;4.47;1.98;;;15.50;88.80;;;;;;5094926;28;20043;-73
2021/05/21 10:46:22;;;;;;;6.43;1.60;;;15.70;86.30;;;;;;5094143;28;20119;-73
2021/05/21 10:48:59;;;;;;;8.32;1.88;;;15.80;85.00;;;;;;5094778;28;20039;-73
2021/05/21 10:51:26;;;;;;;9.15;2.08;;;15.90;83.50;;;;;;5094848;28;20048;-73
2021/05/21 10:54:31;;;;;;;7.30;2.13;;;15.70;83.10;;;;;;5094394;28;20476;-73
2021/05/21 10:57:09;;;;;;;;;;;15.60;83.60;;;;;;5076619;28;20049;-73
2021/05/21 10:59:50;;;;;;;14.23;2.25;;;15.50;82.70;;;;;;5072727;28;20426;-73
2021/05/21 11:02:17;;;;;;;10.57;2.20;;;15.80;82.70;;;;;;5074173;28;20094;-73
2021/05/21 11:04:43;;;;;;;7.40;2.15;;;15.90;82.30;;;;;;5073926;28;20037;-73
2021/05/21 11:07:09;;;;;;;6.60;2.15;;;15.80;83.00;;;;;;5073584;28;20096;-73
2021/05/21 11:09:45;;;;;;;9.68;2.53;;;15.80;83.20;;;;;;5073425;28;20033;-73
2021/05/21 11:12:15;;;;;;;8.63;2.63;;;15.80;81.80;;;;;;5074149;28;20075;-73
2021/05/21 11:14:49;;;;;;;12.48;2.25;;;15.80;83.30;;;;;;5074530;28;20478;-72
2021/05/21 11:17:27;;;;;;;9.13;2.53;;;15.80;83.60;;;;;;5074529;28;20044;-72
2021/05/21 11:20:00;;;;;;;6.13;1.65;;;15.40;83.70;;;;;;5072942;28;20055;-73
2021/05/21 11:22:27;;;;;;;7.63;1.67;;;14.80;84.00;;;;;;5072533;28;20063;-73
2021/05/21 11:25:14;;;;;;;11.80;2.65;;;14.00;87.80;;;;;;5074234;28;20044;-73
2021/05/21 11:27:40;;;;;;;11.23;2.40;;;13.60;91.40;;;;;;5073556;28;20033;-73
2021/05/21 11:30:09;;;;;;;11.10;2.42;;;13.30;92.70;;;;;;5073412;28;20047;-73
2021/05/21 11:32:37;;;;;;;11.35;2.45;;;13.20;93.00;;;;;;5073542;28;20036;-73
2021/05/21 11:35:06;;;;;;;6.82;2.38;;;13.50;94.90;;;;;;5073968;28;20032;-73
2021/05/21 11:37:32;;;;;;;10.10;3.33;;;13.60;94.90;;;;;;5073135;28;20468;-73
2021/05/21 11:40:03;;;;;;;9.82;2.58;;;13.90;95.50;;;;;;5073108;28;20086;-73
2021/05/21 11:42:29;;;;;;;11.70;3.50;;;14.00;94.60;;;;;;5074069;28;20041;-73
2021/05/21 11:44:56;;;;;;;10.52;3.10;;;14.20;95.10;;;;;;5072968;28;20186;-73
2021/05/21 11:47:30;;;;;;;10.38;3.05;;;14.40;93.90;;;;;;5073680;28;20036;-73
2021/05/21 11:49:59;;;;;;;12.43;3.28;;;14.70;93.70;;;;;;5073289;28;20040;-73
2021/05/21 11:52:25;;;;;;;18.90;3.45;;;14.80;92.90;;;;;;5073542;28;20121;-73
2021/05/21 11:54:51;;;;;;;14.45;3.28;;;14.70;91.90;;;;;;5073874;28;20067;-73
2021/05/21 11:57:20;;;;;;;11.40;2.55;;;14.70;92.10;;;;;;5072844;28;20544;-73
2021/05/21 11:59:47;;;;;;;12.50;3.17;;;14.30;91.90;;;;;;5072716;28;20470;-73
2021/05/21 12:02:16;;;;;;;10.82;2.90;;;14.00;93.00;;;;;;5073165;28;20510;-73
2021/05/21 12:04:44;;;;;;;14.63;3.35;;;13.60;94.00;;;;;;5073859;28;20116;-73
2021/05/21 12:07:37;;;;;;;7.18;2.80;;;13.30;94.70;;;;;;5072946;28;20037;-73
2021/05/21 12:10:04;;;;;;;13.13;3.22;;;13.30;96.20;;;;;;5069883;28;20059;-73
2021/05/21 12:12:36;;;;;;;11.50;3.35;;;13.50;97.00;;;;;;5073661;28;20043;-73
2021/05/21 12:15:19;;;;;;;9.90;3.55;;;13.60;96.30;;;;;;5072960;28;20110;-73
2021/05/21 12:17:47;;;;;;;15.90;4.45;;;13.80;96.90;;;;;;5073203;28;20133;-73
2021/05/21 12:23:39;;;;;;;12.85;3.60;;;14.10;96.60;;;;;;4972355;28;20510;-72
2021/05/21 12:26:06;;;;;;;16.15;3.85;;;14.10;95.70;;;;;;4971905;28;20050;-72
2021/05/21 12:28:33;;;;;;;16.95;3.75;;;13.90;95.20;;;;;;4972439;28;20050;-71
2021/05/21 12:31:04;;;;;;;17.00;3.67;;;13.80;95.30;;;;;;4972619;28;20035;-72
2021/05/21 12:33:34;;;;;;;10.55;3.08;;;13.80;94.50;;;;;;5013896;28;20151;-71
2021/05/21 12:36:07;;;;;;;8.43;3.47;;;13.70;93.10;;;;;;5052895;28;20033;-72
2021/05/21 12:38:34;;;;;;;9.43;3.17;;;13.60;94.60;;;;;;5052504;28;20499;-72
2021/05/21 12:41:00;;;;;;;13.15;3.47;;;13.60;94.60;;;;;;5052941;28;20393;-71
2021/05/21 12:43:30;;;;;;;9.63;3.13;;;13.70;95.30;;;;;;5052924;28;20037;-71
2021/05/21 12:46:02;;;;;;;9.02;2.90;;;13.90;95.00;;;;;;5052551;28;20048;-72
2021/05/21 12:48:39;;;;;;;13.15;3.72;;;14.00;94.60;;;;;;5052907;28;20072;-72